Vilagarcia de Arousa, Spain
Current Conditions -  °F | °C
As of 2:00 PM on Saturday 25 Oct 2014 (Local Time) from LEVX Reporting Station
Clear Clear  
Wind Chill: 73°   Ceiling: Unl
Heat Index: 73°   Visibility: 6mi
Dew Point: 64°   Wind: 3mph
Humidity: 73%   Direction: 180°S
Pressure: 30.12"   Gusts: NA
Location:  42.6°N, 8.76°W
Report Text: LEVX 251200Z 18003KT 080V240 CAVOK 23/18 Q1020 NOSIG
Loading
Personal Weather Stations






























Interactive Weather Map
Tropical Storm Tracking
New forecast layout! Learn more

10-Day Weather Forecast

Advertisements
Track Severe Weather on mobile